Time;durP1;ratioP1;P1;durP2;ratioP2;P2;SDS_P1;SDS_P2;PMS_P1;PMS_P2;Temp;Humidity;BMP_temperature;BMP_pressure;BME280_temperature;BME280_humidity;BME280_pressure;Samples;Min_cycle;Max_cycle;Signal;HPM_P1;HPM_P2
2022/10/20 00:02:44;;;;;;;2.15;1.95;;;24.10;47.20;;;;;;7715414;22;80492;-49
2022/10/20 00:05:45;;;;;;;4.45;1.92;;;24.10;47.30;;;;;;7718242;22;81110;-48
2022/10/20 00:08:45;;;;;;;3.40;1.98;;;24.10;47.20;;;;;;7717615;22;79968;-49
2022/10/20 00:11:46;;;;;;;2.00;1.80;;;24.10;47.20;;;;;;7717313;22;80948;-51
2022/10/20 00:14:47;;;;;;;2.22;1.83;;;24.10;47.10;;;;;;7715971;22;80268;-48
2022/10/20 00:17:47;;;;;;;3.03;1.70;;;24.10;47.10;;;;;;7716048;22;81752;-49
2022/10/20 00:20:48;;;;;;;3.25;2.35;;;24.10;47.10;;;;;;7715642;22;80356;-50
2022/10/20 00:23:48;;;;;;;4.20;2.08;;;24.10;47.10;;;;;;7692354;22;80469;-48
2022/10/20 00:26:49;;;;;;;2.40;1.98;;;24.10;47.00;;;;;;7716318;22;80266;-51
2022/10/20 00:29:49;;;;;;;2.67;2.08;;;24.10;47.50;;;;;;7716917;22;80480;-49
2022/10/20 00:32:50;;;;;;;3.67;2.22;;;24.10;46.80;;;;;;7717873;22;81325;-51
2022/10/20 00:35:51;;;;;;;3.70;1.88;;;24.10;46.70;;;;;;7717162;22;80554;-49
2022/10/20 00:38:51;;;;;;;5.45;2.05;;;24.10;46.70;;;;;;7691652;22;83066;-48
2022/10/20 00:41:52;;;;;;;3.42;2.10;;;24.10;46.70;;;;;;7715323;22;82027;-46
2022/10/20 00:44:52;;;;;;;3.00;2.40;;;24.10;46.60;;;;;;7715313;22;81151;-50
2022/10/20 00:47:53;;;;;;;3.40;2.10;;;24.10;46.50;;;;;;7716797;22;81935;-50
2022/10/20 00:50:53;;;;;;;2.67;1.98;;;24.10;46.40;;;;;;7716448;22;80272;-50
2022/10/20 00:53:54;;;;;;;2.10;1.80;;;24.10;46.30;;;;;;7715851;22;80283;-49
2022/10/20 00:56:54;;;;;;;3.13;1.63;;;24.10;46.30;;;;;;7714951;22;80465;-49
2022/10/20 00:59:55;;;;;;;3.35;2.10;;;24.10;46.20;;;;;;7716174;22;80019;-52
2022/10/20 01:02:55;;;;;;;3.33;2.20;;;24.10;46.10;;;;;;7715671;22;80392;-49
2022/10/20 01:05:56;;;;;;;1.95;1.67;;;24.10;46.10;;;;;;7716967;22;81563;-51
2022/10/20 01:08:56;;;;;;;3.15;1.90;;;24.10;46.10;;;;;;7717044;22;81562;-54
2022/10/20 01:11:57;;;;;;;2.28;1.98;;;24.10;46.10;;;;;;7691771;22;82778;-52
2022/10/20 01:14:58;;;;;;;1.80;1.60;;;24.10;46.00;;;;;;7717119;22;81299;-52
2022/10/20 01:17:58;;;;;;;2.33;1.85;;;24.10;45.90;;;;;;7714012;22;81091;-53
2022/10/20 01:21:03;;;;;;;3.67;2.03;;;24.10;46.10;;;;;;7715660;22;80301;-53
2022/10/20 01:24:04;;;;;;;3.28;2.03;;;24.00;46.00;;;;;;7716720;22;80348;-52
2022/10/20 01:27:04;;;;;;;2.28;1.90;;;24.10;46.00;;;;;;7690512;22;82301;-52
2022/10/20 01:30:05;;;;;;;3.30;1.55;;;24.10;45.90;;;;;;7717301;22;80587;-50
2022/10/20 01:33:05;;;;;;;2.47;1.90;;;24.00;45.90;;;;;;7717685;22;80238;-62
2022/10/20 01:36:06;;;;;;;2.10;1.77;;;24.10;45.90;;;;;;7717158;22;81873;-61
2022/10/20 01:39:06;;;;;;;3.45;1.85;;;24.10;45.70;;;;;;7717610;22;79969;-61
2022/10/20 01:42:07;;;;;;;2.67;1.70;;;24.00;45.70;;;;;;7718035;22;81658;-61
2022/10/20 01:45:07;;;;;;;1.88;1.60;;;24.00;45.90;;;;;;7716764;22;80554;-62
2022/10/20 01:48:08;;;;;;;2.42;1.58;;;24.00;45.90;;;;;;7717803;22;81836;-61
2022/10/20 01:51:08;;;;;;;2.00;1.55;;;24.00;45.80;;;;;;7718052;22;80138;-52
2022/10/20 01:54:09;;;;;;;3.13;2.00;;;24.00;45.90;;;;;;7718265;22;80415;-49
2022/10/20 01:57:09;;;;;;;3.22;1.67;;;24.00;45.90;;;;;;7711246;22;80371;-53
2022/10/20 02:00:10;;;;;;;2.60;1.63;;;24.00;45.90;;;;;;7715552;22;81176;-51
2022/10/20 02:03:10;;;;;;;1.90;1.50;;;24.00;45.90;;;;;;7715603;22;81144;-53
2022/10/20 02:06:11;;;;;;;2.92;1.92;;;24.00;45.90;;;;;;7717511;22;81110;-52
2022/10/20 02:09:12;;;;;;;1.92;1.52;;;23.90;45.80;;;;;;7715033;22;82038;-53
2022/10/20 02:12:12;;;;;;;1.90;1.60;;;24.00;45.90;;;;;;7717269;22;80914;-51
2022/10/20 02:15:13;;;;;;;2.28;1.77;;;24.00;45.90;;;;;;7714776;22;81106;-51
2022/10/20 02:18:13;;;;;;;2.15;1.73;;;24.00;45.90;;;;;;7717586;22;80269;-49
2022/10/20 02:21:14;;;;;;;3.53;1.65;;;23.90;45.60;;;;;;7716949;22;79998;-50
2022/10/20 02:24:14;;;;;;;3.85;2.00;;;23.90;45.60;;;;;;7717610;22;80949;-49
2022/10/20 02:27:15;;;;;;;2.95;2.05;;;23.90;45.60;;;;;;7715555;22;80903;-60
2022/10/20 02:30:15;;;;;;;2.10;1.67;;;23.90;45.50;;;;;;7716991;22;81071;-61
2022/10/20 02:33:16;;;;;;;2.58;1.60;;;23.90;45.50;;;;;;7717172;22;81896;-61
2022/10/20 02:36:16;;;;;;;2.22;1.60;;;23.90;45.50;;;;;;7718815;22;80017;-62
2022/10/20 02:39:17;;;;;;;1.52;1.40;;;23.90;45.50;;;;;;7691307;22;80608;-61
2022/10/20 02:42:18;;;;;;;3.03;1.73;;;23.90;45.50;;;;;;7714084;22;81245;-61
2022/10/20 02:45:18;;;;;;;2.20;1.38;;;23.90;45.50;;;;;;7717327;22;80928;-59
2022/10/20 02:48:19;;;;;;;2.22;1.70;;;23.90;45.40;;;;;;7719620;22;80601;-60
2022/10/20 02:51:19;;;;;;;3.47;1.80;;;23.90;45.40;;;;;;7717531;22;80669;-60
2022/10/20 02:54:20;;;;;;;2.65;1.85;;;23.90;45.40;;;;;;7715713;22;80519;-62
2022/10/20 02:57:20;;;;;;;3.28;1.73;;;23.90;45.40;;;;;;7717566;22;80320;-61
2022/10/20 03:00:21;;;;;;;2.75;1.83;;;23.90;45.40;;;;;;7718260;22;80936;-60
2022/10/20 03:03:21;;;;;;;3.55;1.70;;;23.90;45.30;;;;;;7717356;22;80203;-61
2022/10/20 03:06:22;;;;;;;4.53;1.80;;;23.90;45.30;;;;;;7717218;22;80438;-61
2022/10/20 03:09:22;;;;;;;2.75;1.88;;;23.90;45.40;;;;;;7714239;22;80896;-61
2022/10/20 03:12:23;;;;;;;2.67;1.50;;;23.90;45.30;;;;;;7719946;22;80768;-63
2022/10/20 03:15:23;;;;;;;2.92;1.70;;;23.90;45.00;;;;;;7717849;22;80369;-62
2022/10/20 03:18:24;;;;;;;1.60;1.50;;;24.00;44.80;;;;;;7719535;22;80709;-62
2022/10/20 03:21:24;;;;;;;4.65;1.75;;;24.00;44.70;;;;;;7719551;22;80191;-50
2022/10/20 03:24:25;;;;;;;2.33;1.83;;;24.00;44.50;;;;;;7714741;22;80915;-54
2022/10/20 03:27:25;;;;;;;3.50;1.70;;;24.00;44.50;;;;;;7716730;22;80178;-50
2022/10/20 03:30:26;;;;;;;2.05;1.52;;;24.10;44.40;;;;;;7718296;22;80548;-50
2022/10/20 03:33:26;;;;;;;4.30;2.17;;;24.10;44.40;;;;;;7716399;22;80322;-48
2022/10/20 03:36:27;;;;;;;3.70;1.88;;;24.10;44.40;;;;;;7716687;22;80291;-49
2022/10/20 03:39:28;;;;;;;2.50;1.45;;;24.20;44.20;;;;;;7716993;22;81345;-50
2022/10/20 03:42:28;;;;;;;3.17;2.13;;;24.20;44.10;;;;;;7717347;22;80346;-50
2022/10/20 03:45:29;;;;;;;2.97;1.70;;;24.20;44.00;;;;;;7716793;22;80416;-49
2022/10/20 03:48:29;;;;;;;4.30;2.15;;;24.20;44.00;;;;;;7710867;22;80232;-51
2022/10/20 03:51:30;;;;;;;4.25;2.03;;;24.20;43.90;;;;;;7713186;22;81435;-52
2022/10/20 03:54:30;;;;;;;2.78;1.70;;;24.30;43.90;;;;;;7715625;22;80239;-50
2022/10/20 03:57:31;;;;;;;2.92;2.17;;;24.20;43.60;;;;;;7717289;22;80579;-50
2022/10/20 04:00:31;;;;;;;2.50;1.85;;;24.30;43.60;;;;;;7715916;22;79947;-52
2022/10/20 04:03:32;;;;;;;3.03;2.17;;;24.30;43.60;;;;;;7716191;22;81885;-50
2022/10/20 04:06:32;;;;;;;3.55;2.17;;;24.30;43.30;;;;;;7713874;22;80138;-49
2022/10/20 04:09:33;;;;;;;7.90;2.20;;;24.30;43.10;;;;;;7716018;22;80794;-51
2022/10/20 04:12:33;;;;;;;9.15;2.80;;;24.30;43.60;;;;;;7714118;22;79897;-50
2022/10/20 04:15:34;;;;;;;8.27;2.40;;;24.40;44.00;;;;;;7716084;22;81097;-50
2022/10/20 04:18:34;;;;;;;8.02;2.20;;;24.40;44.30;;;;;;7716292;22;81269;-50
2022/10/20 04:21:35;;;;;;;5.18;1.92;;;24.40;44.20;;;;;;7716908;22;80417;-50
2022/10/20 04:24:35;;;;;;;4.53;2.00;;;24.40;44.20;;;;;;7716359;22;80395;-50
2022/10/20 04:27:36;;;;;;;9.63;2.47;;;24.50;44.00;;;;;;7716401;22;80436;-60
2022/10/20 04:30:36;;;;;;;5.15;2.45;;;24.50;44.00;;;;;;7713460;22;80460;-58
2022/10/20 04:33:37;;;;;;;12.27;2.30;;;24.50;44.20;;;;;;7718396;22;80328;-61
2022/10/20 04:36:37;;;;;;;5.63;2.55;;;24.50;44.00;;;;;;7710593;22;80600;-50
2022/10/20 04:39:37;;;;;;;8.07;2.38;;;24.50;43.80;;;;;;7714491;22;81208;-56
2022/10/20 04:42:38;;;;;;;7.45;2.42;;;24.50;43.90;;;;;;7717412;22;81086;-47
2022/10/20 04:45:39;;;;;;;9.98;2.58;;;24.50;43.90;;;;;;7712378;22;80888;-51
2022/10/20 04:48:39;;;;;;;8.95;2.30;;;24.50;43.80;;;;;;7711183;22;80468;-48
2022/10/20 04:51:39;;;;;;;16.58;2.38;;;24.50;43.60;;;;;;7709652;22;81734;-47
2022/10/20 04:54:40;;;;;;;8.43;2.40;;;24.50;43.50;;;;;;7711784;22;81036;-60
2022/10/20 04:57:41;;;;;;;24.00;2.40;;;24.50;43.30;;;;;;7711739;22;81115;-58
2022/10/20 05:00:41;;;;;;;10.65;2.50;;;24.50;43.20;;;;;;7711173;22;80800;-59
2022/10/20 05:03:42;;;;;;;18.00;3.72;;;24.40;42.80;;;;;;7656450;22;81727;-58
2022/10/20 05:06:42;;;;;;;8.15;2.70;;;24.40;42.90;;;;;;7712289;22;80673;-59
2022/10/20 05:09:43;;;;;;;4.07;2.60;;;24.50;42.70;;;;;;7712123;22;81868;-59
2022/10/20 05:12:43;;;;;;;5.93;2.97;;;24.40;42.60;;;;;;7713012;22;80861;-59
2022/10/20 05:15:44;;;;;;;5.38;2.63;;;24.40;42.40;;;;;;7691378;22;80918;-58
2022/10/20 05:18:44;;;;;;;4.55;2.53;;;24.40;42.40;;;;;;7717793;22;80491;-59
2022/10/20 05:21:45;;;;;;;7.45;2.97;;;24.40;42.20;;;;;;7689888;22;82114;-59
2022/10/20 05:24:45;;;;;;;8.00;2.75;;;24.40;42.00;;;;;;7697254;22;81778;-59
2022/10/20 05:27:46;;;;;;;8.05;2.78;;;24.40;42.10;;;;;;7709409;22;80865;-59
2022/10/20 05:30:46;;;;;;;7.90;3.10;;;24.40;42.20;;;;;;7713093;22;80626;-59
2022/10/20 05:33:47;;;;;;;7.15;3.25;;;24.30;42.10;;;;;;7717618;22;80336;-58
2022/10/20 05:36:47;;;;;;;10.88;3.40;;;24.30;41.90;;;;;;7715464;22;80469;-58
2022/10/20 05:39:48;;;;;;;8.35;3.30;;;24.30;42.00;;;;;;7717583;22;81579;-61
2022/10/20 05:42:48;;;;;;;11.02;3.40;;;24.30;41.60;;;;;;7716279;22;80375;-56
2022/10/20 05:45:49;;;;;;;9.73;3.53;;;24.30;41.80;;;;;;7717129;22;80343;-59
2022/10/20 05:48:49;;;;;;;10.77;3.67;;;24.30;41.80;;;;;;7715260;22;80774;-59
2022/10/20 05:51:50;;;;;;;14.40;5.30;;;24.30;41.80;;;;;;7711464;22;81671;-60
2022/10/20 05:54:50;;;;;;;12.30;5.15;;;24.20;40.60;;;;;;7714138;22;80543;-62
2022/10/20 05:57:51;;;;;;;12.27;4.88;;;23.90;39.80;;;;;;7714220;22;80539;-59
2022/10/20 06:00:52;;;;;;;13.50;5.25;;;23.70;40.40;;;;;;7711667;22;80776;-59
2022/10/20 06:03:53;;;;;;;10.40;5.30;;;23.60;40.30;;;;;;7709896;22;80868;-60
2022/10/20 06:06:53;;;;;;;12.88;6.15;;;23.60;40.10;;;;;;7715278;22;80759;-58
2022/10/20 06:09:54;;;;;;;12.07;5.50;;;23.50;40.10;;;;;;7710151;22;80910;-59
2022/10/20 06:12:54;;;;;;;11.27;5.72;;;23.50;40.10;;;;;;7711511;22;80879;-58
2022/10/20 06:15:55;;;;;;;9.70;5.45;;;23.50;40.10;;;;;;7714245;22;80376;-58
2022/10/20 06:18:56;;;;;;;13.43;5.80;;;23.40;40.00;;;;;;7709424;22;80817;-59
2022/10/20 06:21:56;;;;;;;13.30;6.10;;;23.40;40.10;;;;;;7687471;22;81397;-58
2022/10/20 06:24:57;;;;;;;11.48;5.80;;;23.40;40.00;;;;;;7711517;22;80390;-58
2022/10/20 06:27:57;;;;;;;14.05;5.50;;;23.30;39.90;;;;;;7715007;22;80421;-59
2022/10/20 06:30:58;;;;;;;10.88;5.40;;;23.30;40.00;;;;;;7715774;22;81300;-58
2022/10/20 06:33:58;;;;;;;15.85;5.45;;;23.30;40.10;;;;;;7717053;22;80596;-58
2022/10/20 06:36:59;;;;;;;14.68;6.25;;;23.30;40.30;;;;;;7715190;22;80289;-58
2022/10/20 06:39:59;;;;;;;17.25;5.95;;;23.30;40.10;;;;;;7716543;22;80208;-56
2022/10/20 06:43:00;;;;;;;18.30;5.95;;;23.30;39.90;;;;;;7714852;22;80758;-71
2022/10/20 06:46:01;;;;;;;13.85;5.75;;;23.30;39.90;;;;;;7718572;22;80392;-60
2022/10/20 06:49:02;;;;;;;13.32;5.78;;;23.30;39.90;;;;;;7712426;22;84881;-57
2022/10/20 06:52:03;;;;;;;12.02;5.22;;;23.30;39.80;;;;;;7716746;22;80684;-60
2022/10/20 06:55:03;;;;;;;12.07;5.40;;;23.30;40.00;;;;;;7715860;22;80403;-60
2022/10/20 06:58:04;;;;;;;6.78;4.35;;;23.30;39.80;;;;;;7713785;22;82454;-60
2022/10/20 07:01:04;;;;;;;9.32;4.82;;;23.20;39.70;;;;;;7698883;22;80277;-60
2022/10/20 07:04:05;;;;;;;11.57;4.80;;;23.30;39.70;;;;;;7715638;22;81305;-59
2022/10/20 07:07:05;;;;;;;8.85;4.38;;;23.20;39.50;;;;;;7714866;22;80177;-60
2022/10/20 07:10:06;;;;;;;9.45;4.47;;;23.10;39.50;;;;;;7718779;22;80962;-61
2022/10/20 07:13:06;;;;;;;9.45;4.70;;;23.20;39.90;;;;;;7714174;22;80700;-61
2022/10/20 07:16:07;;;;;;;14.13;4.40;;;23.30;39.90;;;;;;7715571;22;80269;-60
2022/10/20 07:19:08;;;;;;;15.93;4.70;;;23.40;40.00;;;;;;7715140;22;80694;-57
2022/10/20 07:22:08;;;;;;;17.48;8.60;;;23.30;39.90;;;;;;7718835;22;81788;-58
2022/10/20 07:25:09;;;;;;;39.28;19.10;;;23.40;40.20;;;;;;7715660;22;81045;-58
2022/10/20 07:28:09;;;;;;;59.83;28.17;;;23.40;40.10;;;;;;7710026;22;83116;-59
2022/10/20 07:31:10;;;;;;;73.05;37.03;;;23.50;40.30;;;;;;7710799;22;83483;-59
2022/10/20 07:34:10;;;;;;;115.82;53.85;;;23.50;40.10;;;;;;7712763;22;82858;-58
2022/10/20 07:37:11;;;;;;;97.47;46.45;;;23.60;39.90;;;;;;7714724;22;89754;-59
2022/10/20 07:40:11;;;;;;;71.32;36.55;;;23.50;39.60;;;;;;7714107;22;83047;-59
2022/10/20 07:43:12;;;;;;;57.08;28.20;;;23.60;39.60;;;;;;7709225;22;83399;-60
2022/10/20 07:46:12;;;;;;;46.67;22.23;;;23.50;39.60;;;;;;7702544;22;83703;-58
2022/10/20 07:49:13;;;;;;;42.50;19.60;;;23.60;39.60;;;;;;7712093;22;83305;-59
2022/10/20 07:52:15;;;;;;;35.10;15.63;;;23.60;39.60;;;;;;7712290;22;83470;-59
2022/10/20 07:55:15;;;;;;;27.27;12.45;;;23.60;39.50;;;;;;7710316;22;83440;-59
2022/10/20 07:58:16;;;;;;;19.38;9.90;;;23.60;39.60;;;;;;7713745;22;83179;-58
2022/10/20 08:01:17;;;;;;;19.70;7.68;;;23.60;39.30;;;;;;7716417;22;82910;-59
2022/10/20 08:04:17;;;;;;;15.15;7.15;;;23.60;39.30;;;;;;7716971;22;79963;-60
2022/10/20 08:07:18;;;;;;;11.13;5.70;;;23.70;39.50;;;;;;7716381;22;80980;-59
2022/10/20 08:10:18;;;;;;;11.52;6.68;;;23.70;40.10;;;;;;7719348;22;82030;-59
2022/10/20 08:13:19;;;;;;;11.40;5.80;;;23.80;39.50;;;;;;7712708;22;81263;-58
2022/10/20 08:16:20;;;;;;;8.05;4.93;;;23.80;39.30;;;;;;7717124;22;80750;-66
2022/10/20 08:19:21;;;;;;;8.57;4.63;;;23.80;39.50;;;;;;7716297;22;82573;-66
2022/10/20 08:22:21;;;;;;;8.05;4.28;;;23.90;39.60;;;;;;7715756;22;80380;-69
2022/10/20 08:25:22;;;;;;;8.30;3.97;;;24.00;39.50;;;;;;7690147;22;80569;-69
2022/10/20 08:28:23;;;;;;;8.73;3.95;;;24.00;39.60;;;;;;7716618;22;80676;-66
2022/10/20 08:31:23;;;;;;;7.18;3.50;;;24.10;39.90;;;;;;7715767;22;81054;-66
2022/10/20 08:34:24;;;;;;;6.90;3.45;;;24.20;39.90;;;;;;7712399;22;81028;-66
2022/10/20 08:37:24;;;;;;;5.78;3.67;;;24.20;39.80;;;;;;7711386;22;81099;-68
2022/10/20 08:40:25;;;;;;;4.95;3.17;;;24.20;39.70;;;;;;7715580;22;80218;-70
2022/10/20 08:43:25;;;;;;;5.07;3.20;;;24.30;39.70;;;;;;7710982;22;82052;-68
2022/10/20 08:46:26;;;;;;;6.43;2.75;;;24.30;39.10;;;;;;7710899;22;80310;-66
2022/10/20 08:49:26;;;;;;;7.70;3.10;;;24.30;39.30;;;;;;7713803;22;81902;-68
2022/10/20 08:52:27;;;;;;;4.85;2.40;;;24.30;39.10;;;;;;7710642;22;80253;-60
2022/10/20 08:55:28;;;;;;;5.38;3.00;;;24.40;39.10;;;;;;7711367;22;81721;-60
2022/10/20 08:58:28;;;;;;;5.38;2.65;;;24.40;39.30;;;;;;7709515;22;81381;-61
2022/10/20 09:01:32;;;;;;;3.97;2.20;;;24.50;38.80;;;;;;7708910;22;80252;-58
2022/10/20 09:04:32;;;;;;;4.93;2.80;;;24.40;38.50;;;;;;7716202;22;80855;-60
2022/10/20 09:07:33;;;;;;;4.35;2.40;;;24.40;38.20;;;;;;7712122;22;81165;-59
2022/10/20 09:10:33;;;;;;;3.08;2.15;;;24.40;38.30;;;;;;7713750;22;80864;-59
2022/10/20 09:13:34;;;;;;;6.60;3.08;;;24.40;38.40;;;;;;7716789;22;80461;-59
2022/10/20 09:16:37;;;;;;;13.48;3.88;;;24.50;38.70;;;;;;7713821;22;80328;-59
2022/10/20 09:19:37;;;;;;;14.15;4.38;;;24.50;38.60;;;;;;7714699;22;80544;-60
2022/10/20 09:22:38;;;;;;;13.55;4.88;;;24.60;38.60;;;;;;7716282;22;81410;-59
2022/10/20 09:25:38;;;;;;;19.92;4.97;;;24.60;38.50;;;;;;7713881;22;80738;-60
2022/10/20 09:28:39;;;;;;;17.02;5.68;;;24.70;38.60;;;;;;7705417;22;80876;-60
2022/10/20 09:31:39;;;;;;;26.75;10.05;;;24.70;38.90;;;;;;7711798;22;80571;-60
2022/10/20 09:34:40;;;;;;;71.85;27.08;;;24.80;39.10;;;;;;7706698;22;83312;-60
2022/10/20 09:37:40;;;;;;;105.68;32.05;;;24.90;39.00;;;;;;7706137;22;83435;-60
2022/10/20 09:40:41;;;;;;;148.68;52.03;;;24.90;38.90;;;;;;7679672;22;85950;-60
2022/10/20 09:43:41;;;;;;;161.90;64.60;;;25.00;39.00;;;;;;7707428;22;82672;-60
2022/10/20 09:46:42;;;;;;;173.95;73.07;;;25.10;38.80;;;;;;7711330;22;84441;-70
2022/10/20 09:49:42;;;;;;;157.13;65.85;;;25.10;38.70;;;;;;7708447;22;82976;-69
2022/10/20 09:52:46;;;;;;;113.88;47.28;;;25.20;38.80;;;;;;7711055;22;83715;-69
2022/10/20 09:55:46;;;;;;;91.95;37.08;;;25.10;38.50;;;;;;7708522;22;83739;-68
2022/10/20 09:58:47;;;;;;;74.55;30.10;;;25.20;38.60;;;;;;7710184;22;83301;-67
2022/10/20 10:01:47;;;;;;;78.07;32.13;;;25.30;38.50;;;;;;7711492;22;83503;-72
2022/10/20 10:04:48;;;;;;;50.30;23.17;;;25.30;38.80;;;;;;7709522;22;83469;-73
2022/10/20 10:07:48;;;;;;;51.28;20.42;;;25.30;38.00;;;;;;7714465;22;82997;-73
2022/10/20 10:10:49;;;;;;;35.63;17.17;;;25.30;38.10;;;;;;7713316;22;83649;-72
2022/10/20 10:13:49;;;;;;;35.53;14.63;;;25.30;38.20;;;;;;7711994;22;82909;-71
2022/10/20 10:16:50;;;;;;;36.25;14.65;;;25.40;38.10;;;;;;7712420;22;83085;-70
2022/10/20 10:19:50;;;;;;;25.45;11.30;;;25.40;37.90;;;;;;7712876;22;84904;-71
2022/10/20 10:22:51;;;;;;;26.38;8.95;;;25.40;37.30;;;;;;7713261;22;84694;-72
2022/10/20 10:25:51;;;;;;;19.90;8.80;;;25.50;37.00;;;;;;7716339;22;81747;-59
2022/10/20 10:28:52;;;;;;;17.73;7.47;;;25.50;37.00;;;;;;7715894;22;81970;-60
2022/10/20 10:31:52;;;;;;;14.70;6.63;;;25.50;36.80;;;;;;7714189;22;80768;-60
2022/10/20 10:34:53;;;;;;;13.10;5.97;;;25.50;36.80;;;;;;7715126;22;80181;-60
2022/10/20 10:37:54;;;;;;;11.85;5.40;;;25.50;36.40;;;;;;7711162;22;80298;-59
2022/10/20 10:40:54;;;;;;;16.35;5.50;;;25.60;36.80;;;;;;7711442;22;80514;-59
2022/10/20 10:43:55;;;;;;;7.38;4.00;;;25.60;36.40;;;;;;7711042;22;80851;-60
2022/10/20 10:46:55;;;;;;;7.70;4.13;;;25.70;36.30;;;;;;7712511;22;80319;-60
2022/10/20 10:49:56;;;;;;;5.50;3.30;;;25.70;36.30;;;;;;7717840;22;80613;-61
2022/10/20 10:52:56;;;;;;;10.18;3.28;;;25.70;36.10;;;;;;7715476;22;80040;-60
2022/10/20 10:55:57;;;;;;;5.78;3.75;;;25.80;36.40;;;;;;7717556;22;80836;-58
2022/10/20 10:58:58;;;;;;;6.82;3.33;;;25.80;36.20;;;;;;7715869;22;80521;-59
2022/10/20 11:01:58;;;;;;;6.43;2.97;;;25.80;36.40;;;;;;7715256;22;80120;-60
2022/10/20 11:04:59;;;;;;;5.50;2.50;;;25.90;36.20;;;;;;7717460;22;80897;-57
2022/10/20 11:08:00;;;;;;;5.38;2.53;;;25.90;36.20;;;;;;7706388;22;80718;-60
2022/10/20 11:11:00;;;;;;;4.97;2.53;;;25.90;36.40;;;;;;7714525;22;82049;-59
2022/10/20 11:14:01;;;;;;;5.57;2.17;;;25.90;36.40;;;;;;7713547;22;80385;-60
2022/10/20 11:17:01;;;;;;;7.38;2.10;;;25.90;36.30;;;;;;7711710;22;81358;-60
2022/10/20 11:20:02;;;;;;;4.32;2.22;;;25.90;36.80;;;;;;7711358;22;80336;-53
2022/10/20 11:23:02;;;;;;;4.25;2.28;;;25.90;35.60;;;;;;7711806;22;80932;-53
2022/10/20 11:26:03;;;;;;;5.70;1.88;;;25.90;35.70;;;;;;7714752;22;80389;-59
2022/10/20 11:29:03;;;;;;;3.03;2.13;;;25.90;35.70;;;;;;7717287;22;80493;-56
2022/10/20 11:32:04;;;;;;;3.92;2.03;;;25.90;35.60;;;;;;7717309;22;82424;-54
2022/10/20 11:35:05;;;;;;;2.13;1.70;;;25.90;35.60;;;;;;7713246;22;80684;-54
2022/10/20 11:38:05;;;;;;;3.70;2.05;;;26.00;35.80;;;;;;7715790;22;80315;-65
2022/10/20 11:41:06;;;;;;;3.55;1.65;;;26.00;35.90;;;;;;7716653;22;80389;-68
2022/10/20 11:44:06;;;;;;;4.65;1.60;;;26.10;36.10;;;;;;7717373;22;81463;-71
2022/10/20 11:47:07;;;;;;;2.72;1.70;;;26.10;36.00;;;;;;7718421;22;80473;-70
2022/10/20 11:50:07;;;;;;;2.78;1.73;;;26.10;36.20;;;;;;7718010;22;80319;-69
2022/10/20 11:53:08;;;;;;;5.55;1.70;;;26.10;36.10;;;;;;7718129;22;81487;-71
2022/10/20 11:56:09;;;;;;;2.35;1.92;;;26.10;36.00;;;;;;7715517;22;80406;-70
2022/10/20 11:59:09;;;;;;;3.58;1.70;;;26.10;35.80;;;;;;7717749;22;80455;-69
2022/10/20 12:02:10;;;;;;;7.20;1.80;;;26.10;35.70;;;;;;7718140;22;80577;-66
2022/10/20 12:05:10;;;;;;;4.55;1.70;;;26.20;36.20;;;;;;7717002;22;80450;-69
2022/10/20 12:08:11;;;;;;;3.38;1.45;;;26.20;35.80;;;;;;7702708;22;80368;-68
2022/10/20 12:11:11;;;;;;;2.40;1.35;;;26.20;36.10;;;;;;7713658;22;80495;-66
2022/10/20 12:14:12;;;;;;;1.77;1.33;;;26.20;36.30;;;;;;7715920;22;80456;-57
2022/10/20 12:17:12;;;;;;;3.40;1.63;;;26.20;36.50;;;;;;7716048;22;81313;-57
2022/10/20 12:20:13;;;;;;;2.10;1.60;;;26.20;36.70;;;;;;7715478;22;81184;-53
2022/10/20 12:23:13;;;;;;;2.53;1.67;;;26.10;35.00;;;;;;7717979;22;80325;-56
2022/10/20 12:26:14;;;;;;;4.45;1.65;;;26.00;34.60;;;;;;7711220;22;80471;-54
2022/10/20 12:29:14;;;;;;;3.65;1.55;;;26.00;35.30;;;;;;7713246;22;80146;-55
2022/10/20 12:32:19;;;;;;;4.63;1.58;;;26.10;34.90;;;;;;7716820;22;80335;-55
2022/10/20 12:35:20;;;;;;;2.00;1.48;;;26.20;35.10;;;;;;7713702;22;81033;-56
2022/10/20 12:38:20;;;;;;;2.03;1.27;;;26.10;34.50;;;;;;7712458;22;80957;-57
2022/10/20 12:41:21;;;;;;;2.65;1.25;;;26.10;34.90;;;;;;7711259;22;80740;-55
2022/10/20 12:44:21;;;;;;;1.33;1.23;;;26.20;34.70;;;;;;7713378;22;81750;-56
2022/10/20 12:47:22;;;;;;;1.50;1.40;;;26.20;34.60;;;;;;7711307;22;80358;-64
2022/10/20 12:50:22;;;;;;;4.43;1.25;;;26.20;34.70;;;;;;7716044;22;80161;-67
2022/10/20 12:53:23;;;;;;;4.72;1.40;;;26.20;34.70;;;;;;7715730;22;81166;-68
2022/10/20 12:56:23;;;;;;;1.60;1.30;;;26.20;34.50;;;;;;7712373;22;80683;-61
2022/10/20 12:59:24;;;;;;;2.47;1.20;;;26.20;34.60;;;;;;7719916;22;80502;-64
2022/10/20 13:02:25;;;;;;;6.38;2.20;;;26.20;34.70;;;;;;7714061;22;80307;-65
2022/10/20 13:05:25;;;;;;;1.42;1.27;;;26.20;34.40;;;;;;7715715;22;80632;-65
2022/10/20 13:08:26;;;;;;;2.00;1.38;;;26.20;34.70;;;;;;7716832;22;80508;-64
2022/10/20 13:11:26;;;;;;;2.30;1.45;;;26.30;34.90;;;;;;7716261;22;80964;-60
2022/10/20 13:14:27;;;;;;;9.25;1.77;;;26.30;34.80;;;;;;7715651;22;80282;-60
2022/10/20 13:17:28;;;;;;;2.83;1.60;;;26.30;34.70;;;;;;7720506;22;81422;-61
2022/10/20 13:20:28;;;;;;;2.75;1.65;;;26.20;34.20;;;;;;7719700;22;81009;-61
2022/10/20 13:23:29;;;;;;;3.20;1.80;;;26.20;34.60;;;;;;7710242;22;81208;-59
2022/10/20 13:26:29;;;;;;;13.20;7.05;;;26.20;34.30;;;;;;7719360;22;81617;-60
2022/10/20 13:29:30;;;;;;;43.97;23.10;;;26.10;34.50;;;;;;7718054;22;80591;-66
2022/10/20 13:32:30;;;;;;;54.92;25.50;;;26.10;34.30;;;;;;7710347;22;82697;-65
2022/10/20 13:35:31;;;;;;;41.70;22.02;;;26.10;34.50;;;;;;7712630;22;83430;-65
2022/10/20 13:38:32;;;;;;;34.25;17.25;;;26.10;34.30;;;;;;7710897;22;84409;-64
2022/10/20 13:41:32;;;;;;;24.17;12.70;;;26.10;34.60;;;;;;7713619;22;82719;-65
2022/10/20 13:44:33;;;;;;;23.30;11.95;;;26.10;34.30;;;;;;7714039;22;84043;-65
2022/10/20 13:47:33;;;;;;;22.55;10.45;;;26.10;34.30;;;;;;7715196;22;83834;-67
2022/10/20 13:50:34;;;;;;;21.20;10.25;;;26.00;34.40;;;;;;7715478;22;84024;-66
2022/10/20 13:53:34;;;;;;;20.50;9.60;;;26.00;34.60;;;;;;7708812;22;84305;-68
2022/10/20 13:56:35;;;;;;;17.67;7.50;;;26.10;35.10;;;;;;7715777;22;83200;-70
2022/10/20 13:59:36;;;;;;;13.82;6.82;;;26.00;35.00;;;;;;7719026;22;80279;-68
2022/10/20 14:02:36;;;;;;;16.50;6.53;;;26.00;35.10;;;;;;7717987;22;80477;-67
2022/10/20 14:05:37;;;;;;;15.00;6.50;;;26.00;35.50;;;;;;7720552;22;80112;-68
2022/10/20 14:08:38;;;;;;;14.23;6.15;;;26.00;35.20;;;;;;7719956;22;81077;-66
2022/10/20 14:11:38;;;;;;;12.25;5.18;;;25.90;35.70;;;;;;7715897;22;80888;-66
2022/10/20 14:14:38;;;;;;;10.15;4.30;;;25.90;35.60;;;;;;7717613;22;80176;-66
2022/10/20 14:17:39;;;;;;;11.98;4.63;;;25.90;35.20;;;;;;7721432;22;80202;-70
2022/10/20 14:20:40;;;;;;;9.15;3.53;;;25.80;35.30;;;;;;7718039;22;80124;-70
2022/10/20 14:23:41;;;;;;;6.90;3.35;;;25.80;35.30;;;;;;7720644;22;80742;-59
2022/10/20 14:26:42;;;;;;;9.52;3.88;;;25.80;34.60;;;;;;7716503;22;80179;-60
2022/10/20 14:29:43;;;;;;;5.20;2.88;;;25.70;34.60;;;;;;7716387;22;81858;-59
2022/10/20 14:32:43;;;;;;;4.57;2.60;;;25.60;34.50;;;;;;7712109;22;80754;-60
2022/10/20 14:35:44;;;;;;;7.40;3.00;;;25.60;34.50;;;;;;7712455;22;81023;-60
2022/10/20 14:38:44;;;;;;;9.57;3.13;;;25.60;35.60;;;;;;7714826;22;80212;-64
2022/10/20 14:41:45;;;;;;;4.93;2.55;;;25.50;35.00;;;;;;7721512;22;80480;-65
2022/10/20 14:44:46;;;;;;;5.65;2.42;;;25.50;34.80;;;;;;7718945;22;80103;-65
2022/10/20 14:47:46;;;;;;;3.80;1.95;;;25.50;34.70;;;;;;7721966;22;81009;-63
2022/10/20 14:50:47;;;;;;;4.82;2.70;;;25.40;34.70;;;;;;7722160;22;80309;-64
2022/10/20 14:53:47;;;;;;;4.85;2.83;;;25.30;34.60;;;;;;7724097;22;80893;-67
2022/10/20 14:56:48;;;;;;;6.90;3.05;;;25.30;34.70;;;;;;7722076;22;80902;-65
2022/10/20 14:59:49;;;;;;;3.40;2.25;;;25.30;34.70;;;;;;7723588;22;80589;-64
2022/10/20 15:02:55;;;;;;;5.95;2.38;;;25.30;34.60;;;;;;7721638;22;80512;-67
2022/10/20 15:05:56;;;;;;;5.45;2.45;;;25.20;34.60;;;;;;7719273;22;81781;-64
2022/10/20 15:08:56;;;;;;;3.60;2.35;;;25.10;34.50;;;;;;7721933;22;82220;-64
2022/10/20 15:11:57;;;;;;;6.78;2.58;;;25.10;34.60;;;;;;7725098;22;80212;-63
2022/10/20 15:14:57;;;;;;;4.38;2.47;;;25.00;34.50;;;;;;7720297;22;80308;-63
2022/10/20 15:17:58;;;;;;;7.53;2.83;;;25.00;34.60;;;;;;7715086;22;81399;-61
2022/10/20 15:20:58;;;;;;;5.28;2.70;;;24.90;34.50;;;;;;7715027;22;80387;-67
2022/10/20 15:23:59;;;;;;;23.23;12.38;;;24.90;35.10;;;;;;7720529;22;80341;-63
2022/10/20 15:27:01;;;;;;;45.58;23.58;;;24.90;35.10;;;;;;7709976;22;83275;-63
2022/10/20 15:30:02;;;;;;;91.53;48.45;;;24.90;35.20;;;;;;7714962;22;82763;-67
2022/10/20 15:33:02;;;;;;;126.68;62.40;;;24.90;35.50;;;;;;7714474;22;84292;-63
2022/10/20 15:36:03;;;;;;;102.50;48.15;;;24.90;35.50;;;;;;7707930;22;83955;-64